PWSweather.com
Personal Weather Stations
Station Observations
RIORANCHO
Corrales Heights, Rio Rancho, NM 87124

Corrales HeightsRio Rancho, NM 87124

Lat: 35.241928, Lon: -106.647095

Elevation: 5297

Station Type: Davis Vantage Pro 2 Plus

http://www.weatherriorancho.com

High Low Average
Temperature 93.5°F34.2°C 63.7°F17.6°C 75.2°F24.0°C
Dew Point 63.7°F17.6°C 50.6°F10.3°C 57.3°F14.1°C
Winds 6.9 mph 11.1 kmh Calm Calm 1.0 mph SE1.6 kmh SE
Wind Gusts 25.3 mph40.7 kmh -- 3.0 mph4.8 kmh
Humidity 83% 24% 58%
Pressure 30.22 in1023.4 mb 30.06 in1017.9 mb -
Precipitation 0.54 in13.7 mm - -
Hour Temp Dew Point Humidity Winds Wind Gusts Pressure Precip Precip Rate Daily Precip Total
12:00 AM 68.3°F20.2°C 57.3°F14.1°C 68% Calm Calm -- 30.22 in1023.4 mb - 0.00 in0.0 mm 0.00 in0.0 mm
12:10 AM 68.0°F20.0°C 57.4°F14.1°C 69% Calm Calm -- 30.22 in1023.4 mb - 0.00 in0.0 mm 0.00 in0.0 mm
12:20 AM 67.6°F19.8°C 58.3°F14.6°C 72% Calm Calm -- 30.21 in1023.0 mb - 0.00 in0.0 mm 0.00 in0.0 mm
12:30 AM 67.3°F19.6°C 58.0°F14.4°C 72% Calm Calm -- 30.21 in1023.0 mb - 0.00 in0.0 mm 0.00 in0.0 mm
12:40 AM 67.0°F19.4°C 57.7°F14.3°C 72% Calm Calm -- 30.21 in1023.0 mb - 0.00 in0.0 mm 0.00 in0.0 mm
12:50 AM 66.8°F19.3°C 57.5°F14.2°C 72% Calm Calm -- 30.21 in1023.0 mb - 0.00 in0.0 mm 0.00 in0.0 mm
01:00 AM 66.6°F19.2°C 57.3°F14.1°C 72% Calm Calm -- 30.21 in1023.0 mb - 0.00 in0.0 mm 0.00 in0.0 mm
01:10 AM 66.5°F19.2°C 57.2°F14.0°C 72% Calm Calm -- 30.21 in1023.0 mb - 0.00 in0.0 mm 0.00 in0.0 mm
01:20 AM 66.4°F19.1°C 56.3°F13.5°C 70% Calm Calm -- 30.21 in1023.0 mb - 0.00 in0.0 mm 0.00 in0.0 mm
01:30 AM 66.3°F19.1°C 56.6°F13.7°C 71% Calm Calm -- 30.20 in1022.7 mb - 0.00 in0.0 mm 0.00 in0.0 mm
01:40 AM 66.1°F18.9°C 57.2°F14.0°C 73% Calm Calm -- 30.20 in1022.7 mb - 0.00 in0.0 mm 0.00 in0.0 mm
02:00 AM 65.6°F18.7°C 58.2°F14.6°C 77% Calm Calm -- 30.21 in1023.0 mb - 0.00 in0.0 mm 0.00 in0.0 mm
02:10 AM 65.3°F18.5°C 58.9°F14.9°C 80% Calm Calm 1.2 mph1.9 kmh 30.21 in1023.0 mb - 0.00 in0.0 mm 0.00 in0.0 mm
02:30 AM 64.5°F18.1°C 58.1°F14.5°C 80% Calm Calm -- 30.21 in1023.0 mb - 0.00 in0.0 mm 0.00 in0.0 mm
02:40 AM 64.3°F17.9°C 58.0°F14.4°C 80% Calm Calm -- 30.21 in1023.0 mb - 0.00 in0.0 mm 0.00 in0.0 mm
02:50 AM 64.2°F17.9°C 57.9°F14.4°C 80% Calm Calm -- 30.21 in1023.0 mb - 0.00 in0.0 mm 0.00 in0.0 mm
03:00 AM 64.1°F17.8°C 58.1°F14.5°C 81% Calm Calm -- 30.20 in1022.7 mb - 0.00 in0.0 mm 0.00 in0.0 mm
03:10 AM 63.9°F17.7°C 58.0°F14.4°C 81% Calm Calm -- 30.20 in1022.7 mb - 0.00 in0.0 mm 0.00 in0.0 mm
03:20 AM 63.8°F17.7°C 57.9°F14.4°C 81% Calm Calm -- 30.20 in1022.7 mb - 0.00 in0.0 mm 0.00 in0.0 mm
03:30 AM 63.8°F17.7°C 57.9°F14.4°C 81% Calm Calm -- 30.20 in1022.7 mb - 0.00 in0.0 mm 0.00 in0.0 mm
03:40 AM 63.7°F17.6°C 57.7°F14.3°C 81% 1.2 mph N1.9 kmh N 4.6 mph7.4 kmh 30.20 in1022.7 mb - 0.00 in0.0 mm 0.00 in0.0 mm
03:50 AM 63.7°F17.6°C 57.4°F14.1°C 80% Calm Calm -- 30.20 in1022.7 mb - 0.00 in0.0 mm 0.00 in0.0 mm
04:00 AM 63.8°F17.7°C 57.2°F14.0°C 79% Calm Calm -- 30.20 in1022.7 mb - 0.00 in0.0 mm 0.00 in0.0 mm
04:11 AM 63.9°F17.7°C 56.9°F13.8°C 78% Calm Calm 3.5 mph5.6 kmh 30.20 in1022.7 mb - 0.00 in0.0 mm 0.00 in0.0 mm
04:20 AM 64.1°F17.8°C 56.7°F13.7°C 77% 1.2 mph NW1.9 kmh NW 3.5 mph5.6 kmh 30.20 in1022.7 mb - 0.00 in0.0 mm 0.00 in0.0 mm
04:30 AM 64.3°F17.9°C 56.6°F13.7°C 76% Calm Calm -- 30.20 in1022.7 mb - 0.00 in0.0 mm 0.00 in0.0 mm
04:40 AM 64.3°F17.9°C 56.6°F13.7°C 76% Calm Calm 3.5 mph5.6 kmh 30.20 in1022.7 mb - 0.00 in0.0 mm 0.00 in0.0 mm
04:50 AM 64.4°F18.0°C 56.3°F13.5°C 75% Calm Calm -- 30.20 in1022.7 mb - 0.00 in0.0 mm 0.00 in0.0 mm
05:00 AM 64.5°F18.1°C 56.0°F13.3°C 74% Calm Calm -- 30.20 in1022.7 mb - 0.00 in0.0 mm 0.00 in0.0 mm
05:11 AM 64.5°F18.1°C 55.7°F13.2°C 73% Calm Calm -- 30.20 in1022.7 mb - 0.00 in0.0 mm 0.00 in0.0 mm
05:20 AM 64.4°F18.0°C 55.9°F13.3°C 74% Calm Calm -- 30.20 in1022.7 mb - 0.00 in0.0 mm 0.00 in0.0 mm
05:30 AM 64.2°F17.9°C 55.7°F13.2°C 74% Calm Calm -- 30.20 in1022.7 mb - 0.00 in0.0 mm 0.00 in0.0 mm
05:40 AM 64.1°F17.8°C 55.6°F13.1°C 74% Calm Calm -- 30.21 in1023.0 mb - 0.00 in0.0 mm 0.00 in0.0 mm
05:50 AM 64.1°F17.8°C 55.6°F13.1°C 74% Calm Calm -- 30.21 in1023.0 mb - 0.00 in0.0 mm 0.00 in0.0 mm
06:00 AM 64.2°F17.9°C 55.8°F13.2°C 74% Calm Calm -- 30.21 in1023.0 mb - 0.00 in0.0 mm 0.00 in0.0 mm
06:10 AM 64.5°F18.1°C 55.7°F13.2°C 73% Calm Calm -- 30.21 in1023.0 mb - 0.00 in0.0 mm 0.00 in0.0 mm
06:20 AM 65.2°F18.4°C 55.5°F13.1°C 71% Calm Calm -- 30.21 in1023.0 mb - 0.00 in0.0 mm 0.00 in0.0 mm
06:30 AM 65.9°F18.8°C 55.4°F13.0°C 69% Calm Calm -- 30.21 in1023.0 mb - 0.00 in0.0 mm 0.00 in0.0 mm
06:40 AM 66.5°F19.2°C 56.0°F13.3°C 69% Calm Calm -- 30.22 in1023.4 mb - 0.00 in0.0 mm 0.00 in0.0 mm
06:50 AM 66.9°F19.4°C 56.0°F13.3°C 68% Calm Calm -- 30.22 in1023.4 mb - 0.00 in0.0 mm 0.00 in0.0 mm
07:00 AM 67.4°F19.7°C 56.1°F13.4°C 67% Calm Calm -- 30.22 in1023.4 mb - 0.00 in0.0 mm 0.00 in0.0 mm
07:10 AM 67.8°F19.9°C 56.4°F13.6°C 67% Calm Calm -- 30.22 in1023.4 mb - 0.00 in0.0 mm 0.00 in0.0 mm
07:20 AM 68.5°F20.3°C 56.7°F13.7°C 66% Calm Calm -- 30.22 in1023.4 mb - 0.00 in0.0 mm 0.00 in0.0 mm
07:30 AM 69.2°F20.7°C 57.0°F13.9°C 65% Calm Calm -- 30.22 in1023.4 mb - 0.00 in0.0 mm 0.00 in0.0 mm
07:40 AM 70.2°F21.2°C 58.3°F14.6°C 66% Calm Calm -- 30.22 in1023.4 mb - 0.00 in0.0 mm 0.00 in0.0 mm
07:50 AM 71.3°F21.8°C 58.0°F14.4°C 63% Calm Calm -- 30.22 in1023.4 mb - 0.00 in0.0 mm 0.00 in0.0 mm
08:00 AM 72.4°F22.4°C 58.2°F14.6°C 61% Calm Calm -- 30.22 in1023.4 mb - 0.00 in0.0 mm 0.00 in0.0 mm
08:10 AM 73.5°F23.1°C 58.8°F14.9°C 60% Calm Calm -- 30.22 in1023.4 mb - 0.00 in0.0 mm 0.00 in0.0 mm
08:20 AM 74.6°F23.7°C 58.8°F14.9°C 58% Calm Calm -- 30.22 in1023.4 mb - 0.00 in0.0 mm 0.00 in0.0 mm
08:30 AM 75.7°F24.3°C 58.4°F14.7°C 55% Calm Calm -- 30.22 in1023.4 mb - 0.00 in0.0 mm 0.00 in0.0 mm
08:40 AM 76.0°F24.4°C 57.1°F13.9°C 52% Calm Calm -- 30.22 in1023.4 mb - 0.00 in0.0 mm 0.00 in0.0 mm
08:51 AM 75.9°F24.4°C 57.0°F13.9°C 52% 1.2 mph SSE1.9 kmh SSE 3.5 mph5.6 kmh 30.21 in1023.0 mb - 0.00 in0.0 mm 0.00 in0.0 mm
09:00 AM 75.7°F24.3°C 55.8°F13.2°C 50% 2.3 mph ESE3.7 kmh ESE 4.6 mph7.4 kmh 30.21 in1023.0 mb - 0.00 in0.0 mm 0.00 in0.0 mm
09:10 AM 76.5°F24.7°C 56.5°F13.6°C 50% Calm Calm 5.8 mph9.3 kmh 30.21 in1023.0 mb - 0.00 in0.0 mm 0.00 in0.0 mm
09:20 AM 76.7°F24.8°C 56.1°F13.4°C 49% 5.8 mph S9.3 kmh S 6.9 mph11.1 kmh 30.21 in1023.0 mb - 0.00 in0.0 mm 0.00 in0.0 mm
09:30 AM 77.2°F25.1°C 56.6°F13.7°C 49% 4.6 mph SSE7.4 kmh SSE 6.9 mph11.1 kmh 30.21 in1023.0 mb - 0.00 in0.0 mm 0.00 in0.0 mm
09:40 AM 77.7°F25.4°C 57.5°F14.2°C 50% 3.5 mph SE5.6 kmh SE 4.6 mph7.4 kmh 30.21 in1023.0 mb - 0.00 in0.0 mm 0.00 in0.0 mm
09:50 AM 77.7°F25.4°C 57.0°F13.9°C 49% 2.3 mph SSE3.7 kmh SSE 3.5 mph5.6 kmh 30.21 in1023.0 mb - 0.00 in0.0 mm 0.00 in0.0 mm
10:00 AM 79.0°F26.1°C 57.1°F13.9°C 47% 1.2 mph SSE1.9 kmh SSE 2.3 mph3.7 kmh 30.21 in1023.0 mb - 0.00 in0.0 mm 0.00 in0.0 mm
10:10 AM 79.7°F26.5°C 57.1°F13.9°C 46% 2.3 mph SSE3.7 kmh SSE 2.3 mph3.7 kmh 30.21 in1023.0 mb - 0.00 in0.0 mm 0.00 in0.0 mm
10:20 AM 80.5°F26.9°C 57.8°F14.3°C 46% 2.3 mph SE3.7 kmh SE 9.2 mph14.8 kmh 30.21 in1023.0 mb - 0.00 in0.0 mm 0.00 in0.0 mm
10:30 AM 80.6°F27.0°C 56.7°F13.7°C 44% 3.5 mph SE5.6 kmh SE 9.2 mph14.8 kmh 30.20 in1022.7 mb - 0.00 in0.0 mm 0.00 in0.0 mm
10:40 AM 81.1°F27.3°C 57.7°F14.3°C 45% 3.5 mph SSE5.6 kmh SSE 4.6 mph7.4 kmh 30.20 in1022.7 mb - 0.00 in0.0 mm 0.00 in0.0 mm
10:50 AM 82.2°F27.9°C 58.1°F14.5°C 44% 1.2 mph SE1.9 kmh SE 3.5 mph5.6 kmh 30.20 in1022.7 mb - 0.00 in0.0 mm 0.00 in0.0 mm
11:00 AM 82.2°F27.9°C 58.1°F14.5°C 44% Calm Calm -- 30.19 in1022.4 mb - 0.00 in0.0 mm 0.00 in0.0 mm
11:10 AM 83.0°F28.3°C 58.2°F14.6°C 43% 2.3 mph SSE3.7 kmh SSE 3.5 mph5.6 kmh 30.19 in1022.4 mb - 0.00 in0.0 mm 0.00 in0.0 mm
11:30 AM 83.3°F28.5°C 57.8°F14.3°C 42% 1.2 mph SE1.9 kmh SE 6.9 mph11.1 kmh 30.18 in1022.0 mb - 0.00 in0.0 mm 0.00 in0.0 mm
11:40 AM 84.6°F29.2°C 56.2°F13.4°C 38% 3.5 mph SSW5.6 kmh SSW 6.9 mph11.1 kmh 30.18 in1022.0 mb - 0.00 in0.0 mm 0.00 in0.0 mm
11:50 AM 85.5°F29.7°C 56.3°F13.5°C 37% 3.5 mph SE5.6 kmh SE 5.8 mph9.3 kmh 30.18 in1022.0 mb - 0.00 in0.0 mm 0.00 in0.0 mm
12:00 PM 86.1°F30.1°C 56.0°F13.3°C 36% Calm Calm 6.9 mph11.1 kmh 30.18 in1022.0 mb - 0.00 in0.0 mm 0.00 in0.0 mm
12:10 PM 85.8°F29.9°C 55.8°F13.2°C 36% Calm Calm 1.2 mph1.9 kmh 30.17 in1021.7 mb - 0.00 in0.0 mm 0.00 in0.0 mm
12:20 PM 87.1°F30.6°C 56.9°F13.8°C 36% 1.2 mph E1.9 kmh E 5.8 mph9.3 kmh 30.16 in1021.3 mb - 0.00 in0.0 mm 0.00 in0.0 mm
12:30 PM 87.3°F30.7°C 57.1°F13.9°C 36% 4.6 mph E7.4 kmh E 8.1 mph13.0 kmh 30.16 in1021.3 mb - 0.00 in0.0 mm 0.00 in0.0 mm
12:40 PM 87.6°F30.9°C 55.8°F13.2°C 34% 3.5 mph SE5.6 kmh SE 6.9 mph11.1 kmh 30.15 in1021.0 mb - 0.00 in0.0 mm 0.00 in0.0 mm
12:51 PM 88.1°F31.2°C 57.0°F13.9°C 35% 1.2 mph ESE1.9 kmh ESE 2.3 mph3.7 kmh 30.15 in1021.0 mb - 0.00 in0.0 mm 0.00 in0.0 mm
01:00 PM 88.7°F31.5°C 56.7°F13.7°C 34% 1.2 mph ESE1.9 kmh ESE 8.1 mph13.0 kmh 30.14 in1020.7 mb - 0.00 in0.0 mm 0.00 in0.0 mm
01:10 PM 89.7°F32.1°C 55.9°F13.3°C 32% 1.2 mph SE1.9 kmh SE -- 30.13 in1020.3 mb - 0.00 in0.0 mm 0.00 in0.0 mm
01:20 PM 90.0°F32.2°C 55.3°F12.9°C 31% 3.5 mph SSE5.6 kmh SSE 4.6 mph7.4 kmh 30.13 in1020.3 mb - 0.00 in0.0 mm 0.00 in0.0 mm
01:30 PM 88.9°F31.6°C 55.3°F12.9°C 32% 2.3 mph SSE3.7 kmh SSE 3.5 mph5.6 kmh 30.13 in1020.3 mb - 0.00 in0.0 mm 0.00 in0.0 mm
01:40 PM 90.4°F32.4°C 55.6°F13.1°C 31% Calm Calm 1.2 mph1.9 kmh 30.12 in1020.0 mb - 0.00 in0.0 mm 0.00 in0.0 mm
01:50 PM 91.0°F32.8°C 56.2°F13.4°C 31% 1.2 mph SE1.9 kmh SE 3.5 mph5.6 kmh 30.12 in1020.0 mb - 0.00 in0.0 mm 0.00 in0.0 mm
02:00 PM 91.9°F33.3°C 56.0°F13.3°C 30% 3.5 mph ESE5.6 kmh ESE 4.6 mph7.4 kmh 30.11 in1019.6 mb - 0.00 in0.0 mm 0.00 in0.0 mm
02:10 PM 91.3°F32.9°C 56.4°F13.6°C 31% 4.6 mph SE7.4 kmh SE 8.1 mph13.0 kmh 30.11 in1019.6 mb - 0.00 in0.0 mm 0.00 in0.0 mm
02:30 PM 92.3°F33.5°C 55.4°F13.0°C 29% 1.2 mph E1.9 kmh E 5.8 mph9.3 kmh 30.10 in1019.3 mb - 0.00 in0.0 mm 0.00 in0.0 mm
02:40 PM 92.8°F33.8°C 54.9°F12.7°C 28% Calm Calm 1.2 mph1.9 kmh 30.10 in1019.3 mb - 0.00 in0.0 mm 0.00 in0.0 mm
02:50 PM 92.8°F33.8°C 54.9°F12.7°C 28% 3.5 mph SE5.6 kmh SE 9.2 mph14.8 kmh 30.09 in1019.0 mb - 0.00 in0.0 mm 0.00 in0.0 mm
03:00 PM 92.3°F33.5°C 54.5°F12.5°C 28% 2.3 mph SE3.7 kmh SE 3.5 mph5.6 kmh 30.09 in1019.0 mb - 0.00 in0.0 mm 0.00 in0.0 mm
03:10 PM 93.3°F34.1°C 54.3°F12.4°C 27% 4.6 mph ESE7.4 kmh ESE 6.9 mph11.1 kmh 30.09 in1019.0 mb - 0.00 in0.0 mm 0.00 in0.0 mm
03:20 PM 93.4°F34.1°C 54.4°F12.4°C 27% 3.5 mph E5.6 kmh E 5.8 mph9.3 kmh 30.08 in1018.6 mb - 0.00 in0.0 mm 0.00 in0.0 mm
03:30 PM 93.5°F34.2°C 52.4°F11.3°C 25% 4.6 mph ESE7.4 kmh ESE 4.6 mph7.4 kmh 30.08 in1018.6 mb - 0.00 in0.0 mm 0.00 in0.0 mm
03:50 PM 93.1°F33.9°C 52.1°F11.2°C 25% 4.6 mph SE7.4 kmh SE 5.8 mph9.3 kmh 30.08 in1018.6 mb - 0.00 in0.0 mm 0.00 in0.0 mm
04:00 PM 92.9°F33.8°C 53.0°F11.7°C 26% 1.2 mph SE1.9 kmh SE 2.3 mph3.7 kmh 30.08 in1018.6 mb - 0.00 in0.0 mm 0.00 in0.0 mm
04:10 PM 93.2°F34.0°C 52.1°F11.2°C 25% 1.2 mph SE1.9 kmh SE 5.8 mph9.3 kmh 30.08 in1018.6 mb - 0.00 in0.0 mm 0.00 in0.0 mm
04:20 PM 93.3°F34.1°C 51.1°F10.6°C 24% 4.6 mph SE7.4 kmh SE 8.1 mph13.0 kmh 30.07 in1018.3 mb - 0.00 in0.0 mm 0.00 in0.0 mm
04:40 PM 93.3°F34.1°C 52.2°F11.2°C 25% 1.2 mph ESE1.9 kmh ESE 1.2 mph1.9 kmh 30.07 in1018.3 mb - 0.00 in0.0 mm 0.00 in0.0 mm
04:50 PM 93.0°F33.9°C 52.0°F11.1°C 25% 3.5 mph E5.6 kmh E 5.8 mph9.3 kmh 30.06 in1017.9 mb - 0.00 in0.0 mm 0.00 in0.0 mm
05:00 PM 93.0°F33.9°C 50.9°F10.5°C 24% 5.8 mph SE9.3 kmh SE 8.1 mph13.0 kmh 30.06 in1017.9 mb - 0.00 in0.0 mm 0.00 in0.0 mm
05:11 PM 92.7°F33.7°C 50.6°F10.3°C 24% 2.3 mph ESE3.7 kmh ESE 6.9 mph11.1 kmh 30.06 in1017.9 mb - 0.00 in0.0 mm 0.00 in0.0 mm
05:20 PM 92.3°F33.5°C 52.5°F11.4°C 26% 1.2 mph SE1.9 kmh SE 2.3 mph3.7 kmh 30.06 in1017.9 mb - 0.00 in0.0 mm 0.00 in0.0 mm
05:30 PM 91.5°F33.1°C 51.8°F11.0°C 26% 1.2 mph SSE1.9 kmh SSE 8.1 mph13.0 kmh 30.07 in1018.3 mb - 0.00 in0.0 mm 0.00 in0.0 mm
05:41 PM 88.7°F31.5°C 53.3°F11.8°C 30% 3.5 mph SSW5.6 kmh SSW 9.2 mph14.8 kmh 30.07 in1018.3 mb - 0.00 in0.0 mm 0.00 in0.0 mm
05:50 PM 86.4°F30.2°C 55.5°F13.1°C 35% 3.5 mph SSE5.6 kmh SSE 4.6 mph7.4 kmh 30.09 in1019.0 mb - 0.00 in0.0 mm 0.00 in0.0 mm
06:00 PM 84.6°F29.2°C 58.3°F14.6°C 41% 1.2 mph E1.9 kmh E 2.3 mph3.7 kmh 30.11 in1019.6 mb - 0.01 in0.3 mm 0.01 in0.3 mm
06:11 PM 83.1°F28.4°C 60.2°F15.7°C 46% 4.6 mph N7.4 kmh N 25.3 mph40.7 kmh 30.14 in1020.7 mb - 0.02 in0.5 mm 0.03 in0.8 mm
06:20 PM 71.3°F21.8°C 59.3°F15.2°C 66% Calm Calm 2.3 mph3.7 kmh 30.13 in1020.3 mb - 0.25 in6.4 mm 0.26 in6.6 mm
06:30 PM 70.0°F21.1°C 61.7°F16.5°C 75% 2.3 mph SE3.7 kmh SE 4.6 mph7.4 kmh 30.13 in1020.3 mb - 0.06 in1.5 mm 0.31 in7.9 mm
07:00 PM 70.5°F21.4°C 63.0°F17.2°C 77% Calm Calm -- 30.12 in1020.0 mb - 0.00 in0.0 mm 0.31 in7.9 mm
07:10 PM 70.7°F21.5°C 63.5°F17.5°C 78% Calm Calm -- 30.12 in1020.0 mb - 0.00 in0.0 mm 0.31 in7.9 mm
07:20 PM 70.5°F21.4°C 63.7°F17.6°C 79% Calm Calm -- 30.14 in1020.7 mb - 0.00 in0.0 mm 0.31 in7.9 mm
07:30 PM 70.3°F21.3°C 62.7°F17.1°C 77% Calm Calm -- 30.15 in1021.0 mb - 0.00 in0.0 mm 0.31 in7.9 mm
07:40 PM 70.6°F21.4°C 62.7°F17.1°C 76% Calm Calm -- 30.16 in1021.3 mb - 0.00 in0.0 mm 0.31 in7.9 mm
07:50 PM 70.6°F21.4°C 63.0°F17.2°C 77% 6.9 mph NW11.1 kmh NW 10.4 mph16.7 kmh 30.18 in1022.0 mb - 0.01 in0.3 mm 0.32 in8.1 mm
08:00 PM 69.7°F20.9°C 62.5°F16.9°C 78% 4.6 mph NW7.4 kmh NW 5.8 mph9.3 kmh 30.19 in1022.4 mb - 0.07 in1.8 mm 0.38 in9.7 mm
08:10 PM 67.6°F19.8°C 61.9°F16.6°C 82% 3.5 mph E5.6 kmh E 5.8 mph9.3 kmh 30.16 in1021.3 mb - 0.16 in4.1 mm 0.52 in13.2 mm
08:20 PM 66.9°F19.4°C 61.5°F16.4°C 83% Calm Calm -- 30.17 in1021.7 mb - 0.02 in0.5 mm 0.54 in13.7 mm
08:30 PM 66.7°F19.3°C 59.6°F15.3°C 78% 4.6 mph S7.4 kmh S 10.4 mph16.7 kmh 30.16 in1021.3 mb - 0.00 in0.0 mm 0.54 in13.7 mm
08:50 PM 68.1°F20.1°C 59.5°F15.3°C 74% Calm Calm -- 30.17 in1021.7 mb - 0.00 in0.0 mm 0.54 in13.7 mm
09:00 PM 68.2°F20.1°C 60.3°F15.7°C 76% Calm Calm -- 30.18 in1022.0 mb - 0.00 in0.0 mm 0.54 in13.7 mm
09:11 PM 67.8°F19.9°C 60.7°F15.9°C 78% Calm Calm -- 30.17 in1021.7 mb - 0.00 in0.0 mm 0.54 in13.7 mm
09:20 PM 67.4°F19.7°C 61.4°F16.3°C 81% Calm Calm -- 30.18 in1022.0 mb - 0.00 in0.0 mm 0.54 in13.7 mm
09:32 PM 67.4°F19.7°C 61.0°F16.1°C 80% Calm Calm -- 30.17 in1021.7 mb - 0.00 in0.0 mm 0.54 in13.7 mm
09:40 PM 68.0°F20.0°C 60.9°F16.1°C 78% Calm Calm -- 30.17 in1021.7 mb - 0.00 in0.0 mm 0.54 in13.7 mm
09:50 PM 68.7°F20.4°C 60.8°F16.0°C 76% Calm Calm -- 30.17 in1021.7 mb - 0.00 in0.0 mm 0.54 in13.7 mm
10:00 PM 69.4°F20.8°C 60.4°F15.8°C 73% Calm Calm -- 30.17 in1021.7 mb - 0.00 in0.0 mm 0.54 in13.7 mm
10:10 PM 70.3°F21.3°C 60.1°F15.6°C 70% Calm Calm -- 30.17 in1021.7 mb - 0.00 in0.0 mm 0.54 in13.7 mm
10:30 PM 70.2°F21.2°C 59.9°F15.5°C 70% Calm Calm -- 30.18 in1022.0 mb - 0.00 in0.0 mm 0.54 in13.7 mm
10:40 PM 70.1°F21.2°C 59.9°F15.5°C 70% Calm Calm -- 30.18 in1022.0 mb - 0.00 in0.0 mm 0.54 in13.7 mm
10:50 PM 69.6°F20.9°C 59.8°F15.4°C 71% 2.3 mph SE3.7 kmh SE 3.5 mph5.6 kmh 30.18 in1022.0 mb - 0.00 in0.0 mm 0.54 in13.7 mm
11:00 PM 69.0°F20.6°C 60.4°F15.8°C 74% 2.3 mph SE3.7 kmh SE 3.5 mph5.6 kmh 30.18 in1022.0 mb - 0.00 in0.0 mm 0.60 in15.2 mm
11:11 PM 68.6°F20.3°C 60.4°F15.8°C 75% Calm Calm -- 30.17 in1021.7 mb - 0.00 in0.0 mm 0.60 in15.2 mm
11:30 PM 68.7°F20.4°C 60.1°F15.6°C 74% Calm Calm -- 30.18 in1022.0 mb - 0.00 in0.0 mm 0.60 in15.2 mm
11:40 PM 68.7°F20.4°C 59.7°F15.4°C 73% Calm Calm -- 30.18 in1022.0 mb - 0.00 in0.0 mm 0.60 in15.2 mm
11:50 PM 68.5°F20.3°C 59.9°F15.5°C 74% Calm Calm -- 30.17 in1021.7 mb - 0.00 in0.0 mm 0.60 in15.2 mm